Time;durP1;ratioP1;P1;durP2;ratioP2;P2;SDS_P1;SDS_P2;PMS_P1;PMS_P2;Temp;Humidity;BMP_temperature;BMP_pressure;BME280_temperature;BME280_humidity;BME280_pressure;Samples;Min_cycle;Max_cycle;Signal;HPM_P1;HPM_P2
2022/09/15 00:01:06;;;;;;;;;;;18.80;63.50;;;;;;5034939;28;19919;-84
2022/09/15 00:03:32;;;;;;;;;;;18.80;63.50;;;;;;5001960;28;19913;-85
2022/09/15 00:05:58;;;;;;;;;;;18.70;63.50;;;;;;5017921;28;20017;-85
2022/09/15 00:08:23;;;;;;;;;;;18.80;63.50;;;;;;5017681;28;19928;-84
2022/09/15 00:10:50;;;;;;;;;;;18.70;63.50;;;;;;5035301;28;19909;-85
2022/09/15 00:13:16;;;;;;;;;;;18.70;63.50;;;;;;5017382;28;20341;-85
2022/09/15 00:15:42;;;;;;;;;;;18.70;63.60;;;;;;5017639;28;20354;-84
2022/09/15 00:18:07;;;;;;;;;;;18.70;63.60;;;;;;5018143;28;19931;-85
2022/09/15 00:20:33;;;;;;;;;;;18.70;63.60;;;;;;5001236;28;20273;-84
2022/09/15 00:22:58;;;;;;;;;;;18.70;63.60;;;;;;5035191;28;19909;-84
2022/09/15 00:25:24;;;;;;;;;;;18.70;63.60;;;;;;5017732;28;19913;-85
2022/09/15 00:27:50;;;;;;;;;;;18.70;63.70;;;;;;5000876;28;19913;-85
2022/09/15 00:30:15;;;;;;;;;;;18.70;63.70;;;;;;5017377;28;19972;-84
2022/09/15 00:32:41;;;;;;;;;;;18.60;63.70;;;;;;5017341;28;19913;-85
2022/09/15 00:35:07;;;;;;;;;;;18.60;63.70;;;;;;5034612;28;19971;-85
2022/09/15 00:37:32;;;;;;;;;;;18.60;63.70;;;;;;5035566;28;19916;-85
2022/09/15 00:39:58;;;;;;;;;;;18.60;63.70;;;;;;5018117;28;19996;-84
2022/09/15 00:42:24;;;;;;;;;;;18.60;63.70;;;;;;5050382;28;19912;-85
2022/09/15 00:44:49;;;;;;;;;;;18.60;63.80;;;;;;5001059;28;19920;-83
2022/09/15 00:47:16;;;;;;;;;;;18.60;63.80;;;;;;5000932;28;19962;-85
2022/09/15 00:49:43;;;;;;;;;;;18.60;63.80;;;;;;5034336;28;19990;-85
2022/09/15 00:52:09;;;;;;;;;;;18.60;63.90;;;;;;5000697;28;19913;-85
2022/09/15 00:54:40;;;;;;;;;;;18.60;63.90;;;;;;5034457;28;19912;-84
2022/09/15 00:57:08;;;;;;;;;;;18.60;63.90;;;;;;5034120;28;20011;-85
2022/09/15 00:59:36;;;;;;;;;;;18.60;63.90;;;;;;5000089;28;19960;-85
2022/09/15 01:02:09;;;;;;;;;;;18.60;63.90;;;;;;5017107;28;19974;-85
2022/09/15 01:04:35;;;;;;;;;;;18.60;64.00;;;;;;5017632;28;19909;-84
2022/09/15 01:07:02;;;;;;;;;;;18.60;64.00;;;;;;5034558;28;19916;-85
2022/09/15 01:09:32;;;;;;;;;;;18.60;64.00;;;;;;5016921;28;20018;-85
2022/09/15 01:11:58;;;;;;;;;;;18.60;64.00;;;;;;5017144;28;19909;-85
2022/09/15 01:14:23;;;;;;;;;;;18.50;64.00;;;;;;5000734;28;19909;-86
2022/09/15 01:16:57;;;;;;;;;;;18.50;64.00;;;;;;5017017;28;20358;-84
2022/09/15 01:19:42;;;;;;;;;;;18.60;64.10;;;;;;5039019;28;20311;-84
2022/09/15 01:22:16;;;;;;;;;;;18.50;64.00;;;;;;5036916;28;19913;-85
2022/09/15 01:24:52;;;;;;;;;;;18.60;64.10;;;;;;5038287;28;19915;-84
2022/09/15 01:27:21;;;;;;;;;;;18.60;64.10;;;;;;5021295;28;19939;-84
2022/09/15 01:29:47;;;;;;;;;;;18.60;64.10;;;;;;5004585;28;19905;-84
2022/09/15 01:35:09;;;;;;;;;;;18.50;64.10;;;;;;5020848;28;19916;-85
2022/09/15 01:37:38;;;;;;;;;;;18.60;64.20;;;;;;5020665;28;20008;-85
2022/09/15 01:40:05;;;;;;;;;;;18.60;64.20;;;;;;5004438;28;19979;-85
2022/09/15 01:42:31;;;;;;;;;;;18.50;64.10;;;;;;5004844;28;20007;-84
2022/09/15 01:45:00;;;;;;;;;;;18.60;64.20;;;;;;4987995;28;19955;-85
2022/09/15 01:47:27;;;;;;;;;;;18.50;64.20;;;;;;5037890;28;19909;-84
2022/09/15 01:50:09;;;;;;;;;;;18.50;64.20;;;;;;5003792;28;20006;-84
2022/09/15 01:52:35;;;;;;;;;;;18.60;64.20;;;;;;5020436;28;19909;-85
2022/09/15 01:55:06;;;;;;;;;;;18.50;64.20;;;;;;5037936;28;19956;-85
2022/09/15 01:57:32;;;;;;;;;;;18.50;64.20;;;;;;5037951;28;19909;-84
2022/09/15 01:59:58;;;;;;;;;;;18.50;64.20;;;;;;5020309;28;19905;-84
2022/09/15 02:02:23;;;;;;;;;;;18.50;64.30;;;;;;5003953;28;20288;-85
2022/09/15 02:04:51;;;;;;;;;;;18.50;64.30;;;;;;5037601;28;19959;-84
2022/09/15 02:07:23;;;;;;;;;;;18.50;64.30;;;;;;5020100;28;19908;-84
2022/09/15 02:09:56;;;;;;;;;;;18.50;64.30;;;;;;5037495;28;19909;-83
2022/09/15 02:12:21;;;;;;;;;;;18.50;64.30;;;;;;5020365;28;19959;-85
2022/09/15 02:14:54;;;;;;;;;;;18.50;64.30;;;;;;5020051;28;19952;-84
2022/09/15 02:17:20;;;;;;;;;;;18.50;64.30;;;;;;5053354;28;19909;-83
2022/09/15 02:19:48;;;;;;;;;;;18.50;64.30;;;;;;5037566;28;20330;-84
2022/09/15 02:22:22;;;;;;;;;;;18.50;64.40;;;;;;5037581;28;19908;-83
2022/09/15 02:24:52;;;;;;;;;;;18.50;64.40;;;;;;5019868;28;19955;-83
2022/09/15 02:27:21;;;;;;;;;;;18.50;64.40;;;;;;5019762;28;19909;-85
2022/09/15 02:29:47;;;;;;;;;;;18.50;64.40;;;;;;5018512;28;20016;-83
2022/09/15 02:32:15;;;;;;;;;;;18.50;64.40;;;;;;5019873;28;20008;-85
2022/09/15 02:34:43;;;;;;;;;;;18.50;64.40;;;;;;5019501;28;19913;-84
2022/09/15 02:37:09;;;;;;;;;;;18.50;64.40;;;;;;5019461;28;19916;-84
2022/09/15 02:39:37;;;;;;;;;;;18.50;64.40;;;;;;5036095;28;19909;-84
2022/09/15 02:42:03;;;;;;;;;;;18.50;64.40;;;;;;5018706;28;19919;-85
2022/09/15 02:44:31;;;;;;;;;;;18.50;64.40;;;;;;5020045;28;19909;-85
2022/09/15 02:46:58;;;;;;;;;;;18.50;64.40;;;;;;5019034;28;19915;-85
2022/09/15 02:49:23;;;;;;;;;;;18.50;64.40;;;;;;5019135;28;19905;-84
2022/09/15 02:51:49;;;;;;;;;;;18.50;64.50;;;;;;5052187;28;20373;-85
2022/09/15 02:54:15;;;;;;;;;;;18.50;64.50;;;;;;5035884;28;19955;-85
2022/09/15 02:56:40;;;;;;;;;;;18.50;64.50;;;;;;5036669;28;19935;-85
2022/09/15 02:59:06;;;;;;;;;;;18.40;64.40;;;;;;5020114;28;19909;-84
2022/09/15 03:01:33;;;;;;;;;;;18.50;64.50;;;;;;5019353;28;20352;-86
2022/09/15 03:04:00;;;;;;;;;;;18.40;64.40;;;;;;5036616;28;19983;-84
2022/09/15 03:06:28;;;;;;;;;;;18.40;64.50;;;;;;5036391;28;19955;-85
2022/09/15 03:08:55;;;;;;;;;;;18.40;64.50;;;;;;5051700;28;19925;-85
2022/09/15 03:11:22;;;;;;;;;;;18.40;64.50;;;;;;5035506;28;20008;-85
2022/09/15 03:13:51;;;;;;;;;;;18.40;64.50;;;;;;5018814;28;19970;-84
2022/09/15 03:16:17;;;;;;;;;;;18.40;65.20;;;;;;5018501;28;19917;-84
2022/09/15 03:18:43;;;;;;;;;;;18.40;64.50;;;;;;5019002;28;19913;-84
2022/09/15 03:21:10;;;;;;;;;;;18.40;65.20;;;;;;5018794;28;19909;-83
2022/09/15 03:23:36;;;;;;;;;;;18.40;64.60;;;;;;5019015;28;19905;-84
2022/09/15 03:26:02;;;;;;;;;;;18.40;64.60;;;;;;5035391;28;19913;-84
2022/09/15 03:28:28;;;;;;;;;;;18.40;64.60;;;;;;5051775;28;19959;-84
2022/09/15 03:30:54;;;;;;;;;;;18.40;64.60;;;;;;5035815;28;19909;-84
2022/09/15 03:33:20;;;;;;;;;;;18.40;64.60;;;;;;5018593;28;19905;-84
2022/09/15 03:35:46;;;;;;;;;;;18.40;64.60;;;;;;5035416;28;19928;-83
2022/09/15 03:38:12;;;;;;;;;;;18.40;64.60;;;;;;5001775;28;19909;-82
2022/09/15 03:40:38;;;;;;;;;;;18.30;64.60;;;;;;5034290;28;20001;-86
2022/09/15 03:43:03;;;;;;;;;;;18.40;64.60;;;;;;5034791;28;20016;-86
2022/09/15 03:45:29;;;;;;;;;;;18.30;64.60;;;;;;5035747;28;20369;-85
2022/09/15 03:47:54;;;;;;;;;;;18.30;64.60;;;;;;5018703;28;19916;-86
2022/09/15 03:50:20;;;;;;;;;;;18.30;64.60;;;;;;5051196;28;20353;-86
2022/09/15 03:52:46;;;;;;;;;;;18.30;64.60;;;;;;5018334;28;20007;-86
2022/09/15 03:55:11;;;;;;;;;;;18.30;64.60;;;;;;5034454;28;19925;-86
2022/09/15 03:57:37;;;;;;;;;;;18.30;64.60;;;;;;5051024;28;20281;-87
2022/09/15 04:00:04;;;;;;;;;;;18.30;64.60;;;;;;5035102;28;19924;-86
2022/09/15 04:02:29;;;;;;;;;;;18.30;64.70;;;;;;5018253;28;20008;-86
2022/09/15 04:04:55;;;;;;;;;;;18.30;64.70;;;;;;5050717;28;19967;-86
2022/09/15 04:07:21;;;;;;;;;;;18.30;64.70;;;;;;5051153;28;19909;-86
2022/09/15 04:09:47;;;;;;;;;;;18.20;64.60;;;;;;5035656;28;19928;-85
2022/09/15 04:12:12;;;;;;;;;;;18.30;64.70;;;;;;5034297;28;19962;-87
2022/09/15 04:14:38;;;;;;;;;;;18.20;64.70;;;;;;5035331;28;20254;-85
2022/09/15 04:17:03;;;;;;;;;;;18.20;64.70;;;;;;5034107;28;19980;-86
2022/09/15 04:19:29;;;;;;;;;;;18.30;64.70;;;;;;5034832;28;20059;-86
2022/09/15 04:21:55;;;;;;;;;;;18.20;64.70;;;;;;5034036;28;20276;-86
2022/09/15 04:24:21;;;;;;;;;;;18.20;64.70;;;;;;5051274;28;19916;-86
2022/09/15 04:26:47;;;;;;;;;;;18.20;64.70;;;;;;5034525;28;20269;-86
2022/09/15 04:29:13;;;;;;;;;;;18.20;64.70;;;;;;5034040;28;19952;-85
2022/09/15 04:31:39;;;;;;;;;;;18.20;64.70;;;;;;5034448;28;19940;-85
2022/09/15 04:34:05;;;;;;;;;;;18.20;64.70;;;;;;5017788;28;19916;-86
2022/09/15 04:36:30;;;;;;;;;;;18.20;64.70;;;;;;5050621;28;20403;-85
2022/09/15 04:38:56;;;;;;;;;;;18.20;64.70;;;;;;5050457;28;19919;-85
2022/09/15 04:41:23;;;;;;;;;;;18.20;64.70;;;;;;5033990;28;19916;-86
2022/09/15 04:43:49;;;;;;;;;;;18.20;64.70;;;;;;5034366;28;19909;-86
2022/09/15 04:46:15;;;;;;;;;;;18.20;64.70;;;;;;5017470;28;19936;-86
2022/09/15 04:48:41;;;;;;;;;;;18.20;64.70;;;;;;5034300;28;19952;-86
2022/09/15 04:51:09;;;;;;;;;;;18.20;64.70;;;;;;5017448;28;19931;-86
2022/09/15 04:53:36;;;;;;;;;;;18.20;64.70;;;;;;5033488;28;19916;-85
2022/09/15 04:56:05;;;;;;;;;;;18.20;64.70;;;;;;5016978;28;19939;-86
2022/09/15 04:58:34;;;;;;;;;;;18.20;64.80;;;;;;5017360;28;19932;-87
2022/09/15 05:01:05;;;;;;;;;;;18.20;64.80;;;;;;5017244;28;19909;-86
2022/09/15 05:03:33;;;;;;;;;;;18.20;64.80;;;;;;5033589;28;19909;-86
2022/09/15 05:05:59;;;;;;;;;;;18.20;64.80;;;;;;5034109;28;19905;-87
2022/09/15 05:08:25;;;;;;;;;;;18.20;64.80;;;;;;5033974;28;19925;-86
2022/09/15 05:10:50;;;;;;;;;;;18.20;64.80;;;;;;5017169;28;19913;-86
2022/09/15 05:13:16;;;;;;;;;;;18.20;64.80;;;;;;5049895;28;19921;-86
2022/09/15 05:15:41;;;;;;;;;;;18.20;64.80;;;;;;5017611;28;19913;-86
2022/09/15 05:18:07;;;;;;;;;;;18.20;64.80;;;;;;5049731;28;19909;-86
2022/09/15 05:20:33;;;;;;;;;;;18.20;64.80;;;;;;5016735;28;19920;-86
2022/09/15 05:22:58;;;;;;;;;;;18.20;64.80;;;;;;5033074;28;19917;-86
2022/09/15 05:25:24;;;;;;;;;;;18.20;64.80;;;;;;5049567;28;20273;-85
2022/09/15 05:27:50;;;;;;;;;;;18.20;64.80;;;;;;5034329;28;19958;-87
2022/09/15 05:30:16;;;;;;;;;;;18.20;64.80;;;;;;5033269;28;19916;-86
2022/09/15 05:32:42;;;;;;;;;;;18.20;64.90;;;;;;5016871;28;19913;-87
2022/09/15 05:35:07;;;;;;;;;;;18.20;64.80;;;;;;5034251;28;19959;-87
2022/09/15 05:37:33;;;;;;;;;;;18.20;64.80;;;;;;5033187;28;19917;-87
2022/09/15 05:39:58;;;;;;;;;;;18.20;64.80;;;;;;5033384;28;19909;-86
2022/09/15 05:42:24;;;;;;;;;;;18.20;64.90;;;;;;5033315;28;19913;-87
2022/09/15 05:44:50;;;;;;;;;;;18.20;64.90;;;;;;5016988;28;20278;-86
2022/09/15 05:47:15;;;;;;;;;;;18.10;64.80;;;;;;5033957;28;20055;-86
2022/09/15 05:49:41;;;;;;;;;;;18.20;64.90;;;;;;5033250;28;20424;-86
2022/09/15 05:52:08;;;;;;;;;;;18.20;64.90;;;;;;5033190;28;19960;-87
2022/09/15 05:54:33;;;;;;;;;;;18.20;64.90;;;;;;5050079;28;19913;-87
2022/09/15 05:56:59;;;;;;;;;;;18.20;64.90;;;;;;5034640;28;19917;-86
2022/09/15 05:59:25;;;;;;;;;;;18.20;64.90;;;;;;5049691;28;19913;-86
2022/09/15 06:01:50;;;;;;;;;;;18.20;64.90;;;;;;5032959;28;19916;-86
2022/09/15 06:04:16;;;;;;;;;;;18.20;64.90;;;;;;5035172;28;20346;-85
2022/09/15 06:06:42;;;;;;;;;;;18.10;64.80;;;;;;5037628;28;19920;-86
2022/09/15 06:09:08;;;;;;;;;;;18.10;65.50;;;;;;5036265;28;19921;-87
2022/09/15 06:11:34;;;;;;;;;;;18.20;64.90;;;;;;5019769;28;19913;-85
2022/09/15 06:14:00;;;;;;;;;;;18.20;64.90;;;;;;5053434;28;20346;-84
2022/09/15 06:16:25;;;;;;;;;;;18.10;64.90;;;;;;5052797;28;19917;-85
2022/09/15 06:18:52;;;;;;;;;;;18.20;64.90;;;;;;5036509;28;19913;-89
2022/09/15 06:21:18;;;;;;;;;;;18.20;64.90;;;;;;5037345;28;20011;-85
2022/09/15 06:23:44;;;;;;;;;;;18.20;64.90;;;;;;5037047;28;20357;-85
2022/09/15 06:26:14;;;;;;;;;;;18.20;64.90;;;;;;5036658;28;19920;-86
2022/09/15 06:28:43;;;;;;;;;;;18.20;64.90;;;;;;5020046;28;19909;-88
2022/09/15 06:31:12;;;;;;;;;;;18.20;64.90;;;;;;5019379;28;19909;-84
2022/09/15 06:33:42;;;;;;;;;;;18.20;64.90;;;;;;5019211;28;20008;-85
2022/09/15 06:36:10;;;;;;;;;;;18.20;64.90;;;;;;5052401;28;20428;-85
2022/09/15 06:38:35;;;;;;;;;;;18.20;64.90;;;;;;5019585;28;19959;-85
2022/09/15 06:41:02;;;;;;;;;;;18.20;64.90;;;;;;5035931;28;20312;-85
2022/09/15 06:43:29;;;;;;;;;;;18.20;64.90;;;;;;5036174;28;19913;-87
2022/09/15 06:46:00;;;;;;;;;;;18.20;64.90;;;;;;5019723;28;20372;-87
2022/09/15 06:48:26;;;;;;;;;;;18.20;65.60;;;;;;5019959;28;19915;-86
2022/09/15 06:50:52;;;;;;;;;;;18.20;64.90;;;;;;5052608;28;20004;-85
2022/09/15 06:53:18;;;;;;;;;;;18.20;64.90;;;;;;5019377;28;19913;-85
2022/09/15 06:55:44;;;;;;;;;;;18.20;64.80;;;;;;5036803;28;19928;-86
2022/09/15 06:58:09;;;;;;;;;;;18.20;64.90;;;;;;5036444;28;19969;-87
2022/09/15 07:00:35;;;;;;;;;;;18.30;64.90;;;;;;5052376;28;19913;-87
2022/09/15 07:03:00;;;;;;;;;;;18.30;65.60;;;;;;5035317;28;20400;-87
2022/09/15 07:05:26;;;;;;;;;;;18.30;64.90;;;;;;5052387;28;19909;-86
2022/09/15 07:07:52;;;;;;;;;;;18.30;64.90;;;;;;5035275;28;19991;-86
2022/09/15 07:10:17;;;;;;;;;;;18.30;64.90;;;;;;5035611;28;19913;-86
2022/09/15 07:12:43;;;;;;;;;;;18.30;64.80;;;;;;5019067;28;19979;-86
2022/09/15 07:15:09;;;;;;;;;;;18.30;64.80;;;;;;5051320;28;19913;-85
2022/09/15 07:17:36;;;;;;;;;;;18.30;64.80;;;;;;5035047;28;19923;-86
2022/09/15 07:20:01;;;;;;;;;;;18.30;64.80;;;;;;5051754;28;19916;-85
2022/09/15 07:22:27;;;;;;;;;;;18.30;65.50;;;;;;5035287;28;20003;-86
2022/09/15 07:24:53;;;;;;;;;;;18.40;64.90;;;;;;5035109;28;19952;-86
2022/09/15 07:27:18;;;;;;;;;;;18.40;64.80;;;;;;5051754;28;19963;-86
2022/09/15 07:29:44;;;;;;;;;;;18.40;64.80;;;;;;5035045;28;19917;-87
2022/09/15 07:32:10;;;;;;;;;;;18.40;64.80;;;;;;5019397;28;19909;-87
2022/09/15 07:34:35;;;;;;;;;;;18.40;64.80;;;;;;5018352;28;19909;-86
2022/09/15 07:37:01;;;;;;;;;;;18.40;64.80;;;;;;5035986;28;19920;-85
2022/09/15 07:39:27;;;;;;;;;;;18.40;64.80;;;;;;5035826;28;20360;-86
2022/09/15 07:41:53;;;;;;;;;;;18.40;64.80;;;;;;5034671;28;20488;-85
2022/09/15 07:44:19;;;;;;;;;;;18.40;64.80;;;;;;5051869;28;19960;-85
2022/09/15 07:46:45;;;;;;;;;;;18.50;64.80;;;;;;5035274;28;19979;-87
2022/09/15 07:49:10;;;;;;;;;;;18.50;64.90;;;;;;5034620;28;19975;-85
2022/09/15 07:51:36;;;;;;;;;;;18.50;64.80;;;;;;5018043;28;20254;-86
2022/09/15 07:54:01;;;;;;;;;;;18.50;64.80;;;;;;5034654;28;20011;-86
2022/09/15 07:56:27;;;;;;;;;;;18.50;64.80;;;;;;5034366;28;19948;-87
2022/09/15 07:58:53;;;;;;;;;;;18.50;64.80;;;;;;5034238;28;20270;-85
2022/09/15 08:01:19;;;;;;;;;;;18.60;64.80;;;;;;5035447;28;20375;-84
2022/09/15 08:03:47;;;;;;;;;;;18.60;64.80;;;;;;5018068;28;19909;-85
2022/09/15 08:06:13;;;;;;;;;;;18.60;64.80;;;;;;5035698;28;19913;-86
2022/09/15 08:08:39;;;;;;;;;;;18.60;64.80;;;;;;5050738;28;19987;-85
2022/09/15 08:11:09;;;;;;;;;;;18.60;64.70;;;;;;5017716;28;19916;-86
2022/09/15 08:13:35;;;;;;;;;;;18.60;64.70;;;;;;5050571;28;20337;-86
2022/09/15 08:16:08;;;;;;;;;;;18.70;64.80;;;;;;5050919;28;20000;-87
2022/09/15 08:18:34;;;;;;;;;;;18.70;64.70;;;;;;5034886;28;19917;-85
2022/09/15 08:21:02;;;;;;;;;;;18.80;64.80;;;;;;5034941;28;19959;-85
2022/09/15 08:23:28;;;;;;;;;;;18.80;64.70;;;;;;5016823;28;19909;-85
2022/09/15 08:25:54;;;;;;;;;;;18.80;64.70;;;;;;5034214;28;20376;-87
2022/09/15 08:28:19;;;;;;;;;;;18.80;64.70;;;;;;5034111;28;19916;-86
2022/09/15 08:30:45;;;;;;;;;;;18.80;64.60;;;;;;5016600;28;19905;-85
2022/09/15 08:33:10;;;;;;;;;;;18.80;64.60;;;;;;5050017;28;19913;-85
2022/09/15 08:35:36;;;;;;;;;;;18.90;64.60;;;;;;5034391;28;19909;-85
2022/09/15 08:38:02;;;;;;;;;;;18.90;64.60;;;;;;5033620;28;19913;-85
2022/09/15 08:40:30;;;;;;;;;;;18.90;64.60;;;;;;5017353;28;19905;-84
2022/09/15 08:42:58;;;;;;;;;;;19.00;64.60;;;;;;5050879;28;19915;-85
2022/09/15 08:45:29;;;;;;;;;;;18.90;65.20;;;;;;5016809;28;20357;-84
2022/09/15 08:47:58;;;;;;;;;;;19.00;64.50;;;;;;5033870;28;19909;-83
2022/09/15 08:50:26;;;;;;;;;;;19.00;64.50;;;;;;5017199;28;19954;-88
2022/09/15 08:52:56;;;;;;;;;;;19.00;64.50;;;;;;5016861;28;20432;-86
2022/09/15 08:55:36;;;;;;;;;;;19.10;64.50;;;;;;5017230;28;19912;-85
2022/09/15 08:58:03;;;;;;;;;;;19.10;64.50;;;;;;5033800;28;20392;-86
2022/09/15 09:00:30;;;;;;;;;;;19.10;64.40;;;;;;5049966;28;19909;-85
2022/09/15 09:03:06;;;;;;;;;;;19.10;64.40;;;;;;5016561;28;19913;-85
2022/09/15 09:05:48;;;;;;;;;;;19.20;64.40;;;;;;5034467;28;19949;-86
2022/09/15 09:08:29;;;;;;;;;;;19.20;64.40;;;;;;5016695;28;19924;-86
2022/09/15 09:11:01;;;;;;;;;;;19.20;64.40;;;;;;5034514;28;19988;-86
2022/09/15 09:13:36;;;;;;;;;;;19.20;64.30;;;;;;5017058;28;19955;-88
2022/09/15 09:16:37;;;;;;;;;;;19.20;64.30;;;;;;5000680;28;20357;-85
2022/09/15 09:19:21;;;;;;;;;;;19.30;64.30;;;;;;4973658;28;19918;-87
2022/09/15 09:21:53;;;;;;;;;;;19.30;64.30;;;;;;5029636;28;19916;-86
2022/09/15 09:24:33;;;;;;;;;;;19.30;64.30;;;;;;5033148;28;19909;-85
2022/09/15 09:26:59;;;;;;;;;;;19.30;64.20;;;;;;5017459;28;19929;-86
2022/09/15 09:29:38;;;;;;;;;;;19.40;64.90;;;;;;5016811;28;19909;-87
2022/09/15 09:32:11;;;;;;;;;;;19.40;64.20;;;;;;5033905;28;19976;-84
2022/09/15 09:34:41;;;;;;;;;;;19.40;64.20;;;;;;5016551;28;19909;-86
2022/09/15 09:37:08;;;;;;;;;;;19.50;64.20;;;;;;5016868;28;20416;-86
2022/09/15 09:39:34;;;;;;;;;;;19.50;64.10;;;;;;5036751;28;19909;-87
2022/09/15 09:42:01;;;;;;;;;;;19.60;64.10;;;;;;5038216;28;20027;-88
2022/09/15 09:44:30;;;;;;;;;;;19.60;64.10;;;;;;5020335;28;19913;-87
2022/09/15 09:46:57;;;;;;;;;;;19.60;64.00;;;;;;5003888;28;19916;-83
2022/09/15 09:49:23;;;;;;;;;;;19.60;64.00;;;;;;5037560;28;19920;-86
2022/09/15 09:51:51;;;;;;;;;;;19.70;64.00;;;;;;5020638;28;20247;-86
2022/09/15 09:54:19;;;;;;;;;;;19.70;64.00;;;;;;5019980;28;19909;-87
2022/09/15 09:56:48;;;;;;;;;;;19.80;63.90;;;;;;5037206;28;20368;-86
2022/09/15 09:59:36;;;;;;;;;;;19.80;63.90;;;;;;5036756;28;19948;-84
2022/09/15 10:02:04;;;;;;;;;;;19.90;63.90;;;;;;5019816;28;19909;-85
2022/09/15 10:04:30;;;;;;;;;;;19.90;63.90;;;;;;5003760;28;20015;-86
2022/09/15 10:06:55;;;;;;;;;;;19.90;63.80;;;;;;5037105;28;20364;-83
2022/09/15 10:09:21;;;;;;;;;;;20.00;63.80;;;;;;5003258;28;19925;-85
2022/09/15 10:11:52;;;;;;;;;;;19.90;63.70;;;;;;5019764;28;19913;-85
2022/09/15 10:14:30;;;;;;;;;;;20.00;63.70;;;;;;5037284;28;19909;-84
2022/09/15 10:16:59;;;;;;;;;;;20.10;63.70;;;;;;5037161;28;19920;-84
2022/09/15 10:19:25;;;;;;;;;;;20.10;63.70;;;;;;5020064;28;19967;-84
2022/09/15 10:21:51;;;;;;;;;;;20.10;63.70;;;;;;5019285;28;19909;-89
2022/09/15 10:24:26;;;;;;;;;;;20.10;63.60;;;;;;5053207;28;19913;-85
2022/09/15 10:27:04;;;;;;;;;;;20.20;63.60;;;;;;5019387;28;19909;-84
2022/09/15 10:29:35;;;;;;;;;;;20.20;63.50;;;;;;5003083;28;19912;-83
2022/09/15 10:32:14;;;;;;;;;;;20.20;63.50;;;;;;5020075;28;19960;-86
2022/09/15 10:34:40;;;;;;;;;;;20.30;63.50;;;;;;5052229;28;19909;-85
2022/09/15 10:37:22;;;;;;;;;;;20.30;63.40;;;;;;5002604;28;19959;-85
2022/09/15 10:39:51;;;;;;;;;;;20.30;63.40;;;;;;5019716;28;19962;-85
2022/09/15 10:42:20;;;;;;;;;;;20.30;63.40;;;;;;5036559;28;19962;-86
2022/09/15 10:44:55;;;;;;;;;;;20.40;63.40;;;;;;5018736;28;20381;-85
2022/09/15 10:47:20;;;;;;;;;;;20.40;63.30;;;;;;5002559;28;19909;-86
2022/09/15 10:49:52;;;;;;;;;;;20.50;63.40;;;;;;5017655;28;20430;-84
2022/09/15 10:52:27;;;;;;;;;;;20.50;63.30;;;;;;5002211;28;19908;-83
2022/09/15 10:55:16;;;;;;;;;;;20.60;63.30;;;;;;5002265;28;20279;-85
2022/09/15 10:57:42;;;;;;;;;;;20.60;63.20;;;;;;5019606;28;19967;-87
2022/09/15 11:00:10;;;;;;;;;;;20.60;63.20;;;;;;5018572;28;19936;-86
2022/09/15 11:02:55;;;;;;;;;;;20.70;63.20;;;;;;5035113;28;20393;-84
2022/09/15 11:05:23;;;;;;;;;;;20.70;63.10;;;;;;5036339;28;19909;-85
2022/09/15 11:07:53;;;;;;;;;;;20.70;63.10;;;;;;5035807;28;19922;-84
2022/09/15 11:10:28;;;;;;;;;;;20.80;63.10;;;;;;5036503;28;19913;-84
2022/09/15 11:13:01;;;;;;;;;;;20.80;63.10;;;;;;5019103;28;20416;-86
2022/09/15 11:15:33;;;;;;;;;;;20.80;63.00;;;;;;5018435;28;19936;-85
2022/09/15 11:18:16;;;;;;;;;;;20.80;63.00;;;;;;5018370;28;19913;-86
2022/09/15 11:21:00;;;;;;;;;;;20.80;62.90;;;;;;5019056;28;19909;-85
2022/09/15 11:23:36;;;;;;;;;;;20.90;63.00;;;;;;5018407;28;19932;-87
2022/09/15 11:26:08;;;;;;;;;;;20.90;62.90;;;;;;5018102;28;19916;-85
2022/09/15 11:28:37;;;;;;;;;;;20.90;62.90;;;;;;5051771;28;19909;-86
2022/09/15 11:31:23;;;;;;;;;;;20.90;62.80;;;;;;5017988;28;20011;-85
2022/09/15 11:33:51;;;;;;;;;;;20.90;62.80;;;;;;5018356;28;19909;-84
2022/09/15 11:36:20;;;;;;;;;;;20.90;62.80;;;;;;5018335;28;19908;-85
2022/09/15 11:38:47;;;;;;;;;;;21.00;62.80;;;;;;5018379;28;19920;-89
2022/09/15 11:41:15;;;;;;;;;;;21.10;62.80;;;;;;5034082;28;19959;-85
2022/09/15 11:43:45;;;;;;;;;;;21.00;62.70;;;;;;5050949;28;19916;-85
2022/09/15 11:46:13;;;;;;;;;;;21.10;62.70;;;;;;5017847;28;20269;-88
2022/09/15 11:48:44;;;;;;;;;;;21.10;62.70;;;;;;5017885;28;19959;-86
2022/09/15 11:51:11;;;;;;;;;;;21.10;62.70;;;;;;5018087;28;20400;-87
2022/09/15 11:53:39;;;;;;;;;;;21.10;62.60;;;;;;5035490;28;19908;-85
2022/09/15 11:56:14;;;;;;;;;;;21.20;62.60;;;;;;5017546;28;19913;-85
2022/09/15 11:58:58;;;;;;;;;;;21.20;62.60;;;;;;5017747;28;19913;-85
2022/09/15 12:01:28;;;;;;;;;;;21.20;62.60;;;;;;5050742;28;19909;-86
2022/09/15 12:04:07;;;;;;;;;;;21.30;62.60;;;;;;5017679;28;19908;-85
2022/09/15 12:06:39;;;;;;;;;;;21.30;62.60;;;;;;5017702;28;19913;-89
2022/09/15 12:09:05;;;;;;;;;;;21.30;62.50;;;;;;5050108;28;19924;-84
2022/09/15 12:11:38;;;;;;;;;;;21.30;62.50;;;;;;5017238;28;19909;-85
2022/09/15 12:14:04;;;;;;;;;;;21.40;62.50;;;;;;5017483;28;19979;-85
2022/09/15 12:16:30;;;;;;;;;;;21.40;62.40;;;;;;5034157;28;19916;-86
2022/09/15 12:19:12;;;;;;;;;;;21.40;62.40;;;;;;5017629;28;19913;-86
2022/09/15 12:21:56;;;;;;;;;;;21.50;62.40;;;;;;5017793;28;20258;-84
2022/09/15 12:24:29;;;;;;;;;;;21.50;62.40;;;;;;5017250;28;19936;-84
2022/09/15 12:26:58;;;;;;;;;;;21.50;63.00;;;;;;5034388;28;19916;-86
2022/09/15 12:29:26;;;;;;;;;;;21.50;62.30;;;;;;5017371;28;19909;-81
2022/09/15 12:32:10;;;;;;;;;;;21.50;62.30;;;;;;5017463;28;19909;-84
2022/09/15 12:34:37;;;;;;;;;;;21.50;62.20;;;;;;5034567;28;19944;-85
2022/09/15 12:37:12;;;;;;;;;;;21.60;62.20;;;;;;5016983;28;19913;-84
2022/09/15 12:39:42;;;;;;;;;;;21.60;62.20;;;;;;5017169;28;19913;-84
2022/09/15 12:42:17;;;;;;;;;;;21.60;62.10;;;;;;5050571;28;19962;-84
2022/09/15 12:44:54;;;;;;;;;;;21.60;62.10;;;;;;5034284;28;19909;-85
2022/09/15 12:47:49;;;;;;;;;;;21.60;62.10;;;;;;5017293;28;19909;-88
2022/09/15 12:50:15;;;;;;;;;;;21.70;62.10;;;;;;5012157;28;20357;-85
2022/09/15 12:52:56;;;;;;;;;;;21.70;62.10;;;;;;5050639;28;19905;-85
2022/09/15 12:55:23;;;;;;;;;;;21.70;62.70;;;;;;5033209;28;19916;-85
2022/09/15 12:57:56;;;;;;;;;;;21.70;62.00;;;;;;5034413;28;19909;-85
2022/09/15 13:00:27;;;;;;;;;;;21.70;62.00;;;;;;5016862;28;19909;-84
2022/09/15 13:02:54;;;;;;;;;;;21.70;62.00;;;;;;5016978;28;19909;-85
2022/09/15 13:05:38;;;;;;;;;;;21.80;62.00;;;;;;5016531;28;20369;-84
2022/09/15 13:08:09;;;;;;;;;;;21.80;62.00;;;;;;5016301;28;19928;-85
2022/09/15 13:10:38;;;;;;;;;;;21.80;62.00;;;;;;5034502;28;19909;-87
2022/09/15 13:13:26;;;;;;;;;;;21.80;62.00;;;;;;5015735;28;20372;-88
2022/09/15 13:15:54;;;;;;;;;;;21.80;61.90;;;;;;4999216;28;19917;-85
2022/09/15 13:18:20;;;;;;;;;;;21.80;61.90;;;;;;5016241;28;19909;-84
2022/09/15 13:20:49;;;;;;;;;;;21.80;61.90;;;;;;5033774;28;20277;-87
2022/09/15 13:23:15;;;;;;;;;;;21.80;61.90;;;;;;5016740;28;19995;-86
2022/09/15 13:25:43;;;;;;;;;;;21.90;61.90;;;;;;5049371;28;19959;-84
2022/09/15 13:28:10;;;;;;;;;;;21.80;61.80;;;;;;5016457;28;19923;-85
2022/09/15 13:30:54;;;;;;;;;;;21.80;61.80;;;;;;5015920;28;19913;-85
2022/09/15 13:33:38;;;;;;;;;;;21.80;61.70;;;;;;5016495;28;20349;-84
2022/09/15 13:36:13;;;;;;;;;;;21.80;61.70;;;;;;5016388;28;19913;-84
2022/09/15 13:38:45;;;;;;;;;;;21.90;61.80;;;;;;5049259;28;20313;-83
2022/09/15 13:41:17;;;;;;;;;;;21.90;61.70;;;;;;5015915;28;19916;-85
2022/09/15 13:44:01;;;;;;;;;;;21.90;61.70;;;;;;5033368;28;19992;-85
2022/09/15 13:46:27;;;;;;;;;;;21.90;61.60;;;;;;5016179;28;19913;-84
2022/09/15 13:49:02;;;;;;;;;;;21.90;61.50;;;;;;5049134;28;19909;-86
2022/09/15 13:51:29;;;;;;;;;;;21.90;61.50;;;;;;5033846;28;20011;-84
2022/09/15 13:53:58;;;;;;;;;;;21.90;61.40;;;;;;5015737;28;19996;-88
2022/09/15 13:56:40;;;;;;;;;;;21.90;61.30;;;;;;5012956;28;19931;-85
2022/09/15 13:59:10;;;;;;;;;;;21.90;61.30;;;;;;5014001;28;19913;-82
2022/09/15 14:01:39;;;;;;;;;;;21.90;61.30;;;;;;5016264;28;19916;-84
2022/09/15 14:04:15;;;;;;;;;;;21.90;61.20;;;;;;5016002;28;19909;-89
2022/09/15 14:06:43;;;;;;;;;;;21.90;61.20;;;;;;5016693;28;19916;-84
2022/09/15 14:09:11;;;;;;;;;;;21.90;61.20;;;;;;5033843;28;19917;-86
2022/09/15 14:11:37;;;;;;;;;;;21.90;61.20;;;;;;5034149;28;20011;-85
2022/09/15 14:14:05;;;;;;;;;;;21.90;61.20;;;;;;5033601;28;19911;-84
2022/09/15 14:16:33;;;;;;;;;;;21.90;61.20;;;;;;5049172;28;20008;-85
2022/09/15 14:18:59;;;;;;;;;;;21.90;61.10;;;;;;5016975;28;20004;-85
2022/09/15 14:21:26;;;;;;;;;;;21.90;61.10;;;;;;5033772;28;19957;-86
2022/09/15 14:23:53;;;;;;;;;;;21.90;61.00;;;;;;5016317;28;19905;-86
2022/09/15 14:26:21;;;;;;;;;;;21.90;61.00;;;;;;5019649;28;19932;-85
2022/09/15 14:28:48;;;;;;;;;;;21.90;61.00;;;;;;5036964;28;19905;-86